Time;durP1;ratioP1;P1;durP2;ratioP2;P2;SDS_P1;SDS_P2;PMS_P1;PMS_P2;Temp;Humidity;BMP_temperature;BMP_pressure;BME280_temperature;BME280_humidity;BME280_pressure;Samples;Min_cycle;Max_cycle;Signal;HPM_P1;HPM_P2
2022/05/23 00:02:09;;;;;;;;;;;;;;;20.58;63.45;100266.16;7407285;19;1692;-60
2022/05/23 00:04:37;;;;;;;;;;;;;;;20.56;63.21;100269.00;7410649;19;1542;-59
2022/05/23 00:07:11;;;;;;;;;;;;;;;20.56;63.37;100269.00;7411273;19;1634;-63
2022/05/23 00:09:42;;;;;;;;;;;;;;;20.58;63.31;100279.59;7411731;19;1523;-60
2022/05/23 00:12:11;;;;;;;;;;;;;;;20.56;63.27;100266.31;7410728;19;1208;-63
2022/05/23 00:14:41;;;;;;;;;;;;;;;20.57;63.20;100270.69;7408133;19;1859;-60
2022/05/23 00:17:10;;;;;;;;;;;;;;;20.57;63.28;100273.38;7409433;19;1605;-63
2022/05/23 00:19:38;;;;;;;;;;;;;;;20.54;63.18;100262.94;7409598;19;1538;-60
2022/05/23 00:22:07;;;;;;;;;;;;;;;20.54;63.72;100273.69;7411899;19;967;-63
2022/05/23 00:24:36;;;;;;;;;;;;;;;20.54;63.78;100276.38;7408543;19;1760;-60
2022/05/23 00:27:08;;;;;;;;;;;;;;;20.53;63.69;100273.84;7409588;19;1546;-60
2022/05/23 00:29:37;;;;;;;;;;;;;;;20.54;63.36;100279.06;7409416;19;1515;-63
2022/05/23 00:37:27;;;;;;;;;;;;;;;20.52;63.46;100267.63;7409352;19;1598;-63
2022/05/23 00:39:56;;;;;;;;;;;;;;;20.51;63.54;100275.84;7409070;19;1712;-63
2022/05/23 00:45:09;;;;;;;;;;;;;;;20.53;63.67;100279.22;7410492;19;1503;-60
2022/05/23 00:47:38;;;;;;;;;;;;;;;20.51;63.58;100274.00;7408699;19;1539;-64
2022/05/23 00:50:06;;;;;;;;;;;;;;;20.53;63.16;100273.84;7408125;19;1350;-64
2022/05/23 00:52:36;;;;;;;;;;;;;;;20.52;63.42;100262.25;7410089;19;1633;-60
2022/05/23 00:55:08;;;;;;;;;;;;;;;20.55;63.25;100272.69;7407645;19;1822;-61
2022/05/23 00:57:40;;;;;;;;;;;;;;;20.57;63.27;100280.56;7410271;19;1530;-59
2022/05/23 01:00:10;;;;;;;;;;;;;;;20.54;63.58;100276.38;7409377;19;1605;-60
2022/05/23 01:02:39;;;;;;;;;;;;;;;20.57;63.20;100276.06;7406585;19;1661;-63
2022/05/23 01:05:09;;;;;;;;;;;;;;;20.51;63.15;100259.72;7408791;19;1518;-60
2022/05/23 01:07:37;;;;;;;;;;;;;;;20.53;63.58;100269.34;7408086;19;1783;-60
2022/05/23 01:10:09;;;;;;;;;;;;;;;20.53;63.47;100266.66;7407779;19;1732;-64
2022/05/23 01:12:40;;;;;;;;;;;;;;;20.51;63.40;100281.22;7407992;19;1639;-64
2022/05/23 01:15:18;;;;;;;;;;;;;;;20.50;63.36;100266.94;7406582;19;1865;-61
2022/05/23 01:17:46;;;;;;;;;;;;;;;20.53;63.46;100273.84;7408514;19;1559;-60
2022/05/23 01:20:15;;;;;;;;;;;;;;;20.50;63.49;100272.31;7404991;19;1472;-63
2022/05/23 01:22:46;;;;;;;;;;;;;;;20.50;63.32;100264.25;7408012;19;1559;-63
2022/05/23 01:25:19;;;;;;;;;;;;;;;20.52;63.38;100273.00;7409113;19;1479;-60
2022/05/23 01:27:51;;;;;;;;;;;;;;;20.49;63.53;100265.25;7407850;19;1763;-60
2022/05/23 01:30:20;;;;;;;;;;;;;;;20.52;63.71;100270.31;7407249;19;1740;-60
2022/05/23 01:32:48;;;;;;;;;;;;;;;20.48;63.87;100260.06;7407503;19;1672;-64
2022/05/23 01:35:17;;;;;;;;;;;;;;;20.48;63.65;100246.63;7406489;19;1846;-60
2022/05/23 01:37:45;;;;;;;;;;;;;;;20.49;63.34;100265.25;7407726;19;1617;-60
2022/05/23 01:40:15;;;;;;;;;;;;;;;20.49;63.56;100250.97;7405403;19;1930;-63
2022/05/23 01:42:43;;;;;;;;;;;;;;;20.49;63.56;100270.63;7406795;19;1752;-60
2022/05/23 01:45:17;;;;;;;;;;;;;;;20.50;63.26;100258.88;7407406;19;1546;-64
2022/05/23 01:47:45;;;;;;;;;;;;;;;20.50;63.61;100271.47;7406948;19;1555;-63
2022/05/23 01:50:13;;;;;;;;;;;;;;;20.48;63.67;100255.53;7406637;19;1622;-60
2022/05/23 01:52:42;;;;;;;;;;;;;;;20.48;63.58;100263.56;7408194;19;1542;-64
2022/05/23 01:55:11;;;;;;;;;;;;;;;20.49;63.66;100267.94;7406006;19;1860;-64
2022/05/23 01:57:40;;;;;;;;;;;;;;;20.48;63.62;100266.25;7407492;19;1359;-61
2022/05/23 02:02:57;;;;;;;;;;;;;;;20.51;63.65;100276.66;7386915;19;1677;-38
2022/05/23 02:05:27;;;;;;;;;;;;;;;20.46;63.65;100260.22;7402353;19;1898;-38
2022/05/23 02:07:58;;;;;;;;;;;;;;;20.50;63.30;100264.25;7402936;19;1714;-38
2022/05/23 02:10:56;;;;;;;;;;;;;;;20.46;63.57;100268.25;7403205;19;1467;-39
2022/05/23 02:13:28;;;;;;;;;;;;;;;20.50;63.76;100269.63;7403143;19;1919;-38
2022/05/23 02:16:00;;;;;;;;;;;;;;;20.46;63.53;100269.09;7403093;19;1837;-38
2022/05/23 02:18:36;;;;;;;;;;;;;;;20.45;63.48;100267.44;7403673;19;2005;-38
2022/05/23 02:21:16;;;;;;;;;;;;;;;20.46;63.46;100276.31;7400096;19;1665;-38
2022/05/23 02:23:44;;;;;;;;;;;;;;;20.48;63.36;100277.00;7403573;19;1884;-38
2022/05/23 02:26:16;;;;;;;;;;;;;;;20.47;63.54;100269.94;7402715;19;2068;-38
2022/05/23 02:28:57;;;;;;;;;;;;;;;20.47;63.52;100275.31;7402480;19;1924;-38
2022/05/23 02:31:37;;;;;;;;;;;;;;;20.48;63.31;100285.06;7402841;19;1870;-38
2022/05/23 02:34:15;;;;;;;;;;;;;;;20.47;63.42;100272.63;7402960;19;1849;-38
2022/05/23 02:36:45;;;;;;;;;;;;;;;20.45;63.78;100272.81;7403294;19;1094;-38
2022/05/23 02:39:16;;;;;;;;;;;;;;;20.46;63.62;100268.25;7402113;19;1830;-38
2022/05/23 02:41:48;;;;;;;;;;;;;;;20.46;63.57;100277.16;7402570;19;1532;-38
2022/05/23 02:44:19;;;;;;;;;;;;;;;20.42;63.84;100275.78;7402434;19;1679;-38
2022/05/23 02:46:51;;;;;;;;;;;;;;;20.44;63.76;100259.53;7402162;19;1655;-38
2022/05/23 02:49:23;;;;;;;;;;;;;;;20.42;63.91;100273.09;7401222;19;1679;-38
2022/05/23 02:51:54;;;;;;;;;;;;;;;20.44;63.74;100286.38;7402554;19;1909;-38
2022/05/23 02:54:23;;;;;;;;;;;;;;;20.44;63.55;100289.06;7399819;19;2054;-38
2022/05/23 02:57:05;;;;;;;;;;;;;;;20.41;63.52;100292.91;7400480;19;1621;-38
2022/05/23 02:59:36;;;;;;;;;;;;;;;20.43;63.74;100290.06;7401216;19;1827;-39
2022/05/23 03:04:56;;;;;;;;;;;;;;;20.44;63.89;100302.50;7402035;19;1603;-38
2022/05/23 03:07:24;;;;;;;;;;;;;;;20.41;63.70;100289.38;7397823;19;1753;-38
2022/05/23 03:09:53;;;;;;;;;;;;;;;20.41;63.36;100294.72;7400732;19;1841;-38
2022/05/23 03:12:21;;;;;;;;;;;;;;;20.45;63.73;100305.03;7400345;19;1643;-38
2022/05/23 03:14:52;;;;;;;;;;;;;;;20.46;63.79;100308.56;7397162;19;1850;-38
2022/05/23 03:17:24;;;;;;;;;;;;;;;20.45;63.43;100294.28;7400409;19;1587;-38
2022/05/23 03:19:55;;;;;;;;;;;;;;;20.43;63.50;100280.16;7400493;19;1642;-39
2022/05/23 03:27:53;;;;;;;;;;;;;;;20.44;63.63;100294.44;7401726;19;1957;-38
2022/05/23 03:30:21;;;;;;;;;;;;;;;20.42;63.56;100293.75;7401026;19;1932;-38
2022/05/23 03:32:51;;;;;;;;;;;;;;;20.45;63.63;100304.16;7403507;19;1629;-38
2022/05/23 03:35:26;;;;;;;;;;;;;;;20.44;63.45;100302.50;7406652;19;1921;-38
2022/05/23 03:38:01;;;;;;;;;;;;;;;20.42;63.30;100293.75;7406794;19;1717;-38
2022/05/23 03:40:29;;;;;;;;;;;;;;;20.43;63.62;100280.16;7407485;19;1493;-38
2022/05/23 03:43:00;;;;;;;;;;;;;;;20.45;63.49;100306.84;7408194;19;2049;-38
2022/05/23 03:45:36;;;;;;;;;;;;;;;20.49;63.65;100302.00;7408630;19;1848;-38
2022/05/23 03:48:10;;;;;;;;;;;;;;;20.46;63.43;100287.91;7408471;19;1845;-38
2022/05/23 03:50:42;;;;;;;;;;;;;;;20.50;63.29;100296.50;7406635;19;1850;-39
2022/05/23 03:53:12;;;;;;;;;;;;;;;20.51;63.35;100292.78;7406641;19;1826;-38
2022/05/23 03:55:46;;;;;;;;;;;;;;;20.54;63.33;100297.88;7405933;19;1834;-38
2022/05/23 03:58:16;;;;;;;;;;;;;;;20.48;63.10;100309.22;7408734;19;1008;-38
2022/05/23 04:00:49;;;;;;;;;;;;;;;20.61;62.89;100298.97;7407356;19;1497;-38
2022/05/23 04:03:17;;;;;;;;;;;;;;;20.60;62.88;100305.31;7401698;19;1724;-38
2022/05/23 04:05:48;;;;;;;;;;;;;;;20.58;62.86;100293.84;7406918;19;2028;-38
2022/05/23 04:08:16;;;;;;;;;;;;;;;20.58;63.03;100322.56;7406029;19;2061;-39
2022/05/23 04:10:45;;;;;;;;;;;;;;;20.57;63.01;100305.63;7406773;19;1896;-39
2022/05/23 04:13:13;;;;;;;;;;;;;;;20.64;62.86;100298.63;7407473;19;1808;-38
2022/05/23 04:15:41;;;;;;;;;;;;;;;20.62;63.25;100306.00;7405572;19;1970;-38
2022/05/23 04:18:09;;;;;;;;;;;;;;;20.58;63.61;100309.97;7405931;19;1870;-39
2022/05/23 04:20:38;;;;;;;;;;;;;;;20.56;63.58;100295.88;7407773;19;1922;-39
2022/05/23 04:23:09;;;;;;;;;;;;;;;20.57;63.44;100308.31;7407085;19;1733;-38
2022/05/23 04:25:40;;;;;;;;;;;;;;;20.51;63.58;100300.00;7407051;19;1572;-38
2022/05/23 04:28:08;;;;;;;;;;;;;;;20.54;63.58;100305.09;7407220;19;1807;-38
2022/05/23 04:30:37;;;;;;;;;;;;;;;20.51;64.04;100311.59;7405774;19;1923;-38
2022/05/23 04:35:46;;;;;;;;;;;;;;;20.50;63.74;100315.28;7404332;19;1960;-38
2022/05/23 04:38:17;;;;;;;;;;;;;;;20.49;63.90;100308.22;7405474;19;1946;-38
2022/05/23 04:40:45;;;;;;;;;;;;;;;20.50;63.58;100307.22;7405415;19;1821;-39
2022/05/23 04:43:13;;;;;;;;;;;;;;;20.51;63.62;100310.75;7406730;19;1887;-38
2022/05/23 04:45:42;;;;;;;;;;;;;;;20.50;63.79;100304.56;7404852;19;2044;-38
2022/05/23 04:50:52;;;;;;;;;;;;;;;20.52;63.92;100307.91;7404406;19;1886;-39
2022/05/23 04:53:23;;;;;;;;;;;;;;;20.52;63.89;100313.28;7405134;19;1924;-38
2022/05/23 04:55:51;;;;;;;;;;;;;;;20.48;63.70;100287.75;7403708;19;1855;-39
2022/05/23 04:58:19;;;;;;;;;;;;;;;20.48;63.70;100286.91;7407515;19;1031;-38
2022/05/23 05:00:47;;;;;;;;;;;;;;;20.48;63.85;100308.41;7405813;19;1808;-38
2022/05/23 05:03:16;;;;;;;;;;;;;;;20.46;63.71;100298.66;7402810;19;1896;-38
2022/05/23 05:05:44;;;;;;;;;;;;;;;20.50;63.46;100307.22;7405622;19;1792;-38
2022/05/23 05:08:12;;;;;;;;;;;;;;;20.52;63.89;100299.03;7405487;19;1914;-38
2022/05/23 05:10:43;;;;;;;;;;;;;;;20.48;63.63;100293.13;7404457;19;1663;-39
2022/05/23 05:13:11;;;;;;;;;;;;;;;20.51;63.82;100298.16;7405748;19;1587;-38
2022/05/23 05:15:40;;;;;;;;;;;;;;;20.50;63.76;100292.97;7403562;19;1865;-38
2022/05/23 05:18:09;;;;;;;;;;;;;;;20.50;63.37;100301.03;7404495;19;1774;-38
2022/05/23 05:20:37;;;;;;;;;;;;;;;20.52;63.84;100305.22;7404638;19;1519;-38
2022/05/23 05:23:05;;;;;;;;;;;;;;;20.48;63.81;100316.47;7405239;19;1773;-38
2022/05/23 05:25:34;;;;;;;;;;;;;;;20.45;63.93;100310.41;7405525;19;1747;-38
2022/05/23 05:28:05;;;;;;;;;;;;;;;20.49;63.67;100299.31;7403994;19;1750;-38
2022/05/23 05:30:33;;;;;;;;;;;;;;;20.49;63.73;100308.22;7404053;19;1540;-38
2022/05/23 05:33:05;;;;;;;;;;;;;;;20.48;63.76;100306.56;7403768;19;1844;-38
2022/05/23 05:35:37;;;;;;;;;;;;;;;20.50;63.58;100309.09;7403630;19;1866;-38
2022/05/23 05:38:13;;;;;;;;;;;;;;;20.49;63.70;100299.31;7403173;19;1824;-38
2022/05/23 05:40:45;;;;;;;;;;;;;;;20.51;63.49;100313.44;7403452;19;1497;-39
2022/05/23 05:43:26;;;;;;;;;;;;;;;20.49;63.55;100300.16;7404538;19;1853;-38
2022/05/23 05:48:51;;;;;;;;;;;;;;;20.58;63.29;100311.84;7400790;19;2325;-38
2022/05/23 05:51:26;;;;;;;;;;;;;;;20.55;63.32;100312.13;7402991;19;1576;-38
2022/05/23 05:53:55;;;;;;;;;;;;;;;20.55;63.19;100321.06;7402794;19;1558;-38
2022/05/23 05:56:27;;;;;;;;;;;;;;;20.57;63.53;100319.06;7399246;19;1861;-38
2022/05/23 05:58:58;;;;;;;;;;;;;;;20.56;63.33;100316.50;7402968;19;1265;-38
2022/05/23 06:01:27;;;;;;;;;;;;;;;20.56;62.37;100327.25;7403012;19;1443;-38
2022/05/23 06:03:59;;;;;;;;;;;;;;;20.54;63.05;100310.47;7403831;19;1726;-38
2022/05/23 06:11:59;;;;;;;;;;;;;;;20.57;63.15;100308.31;7401257;19;2044;-38
2022/05/23 06:14:32;;;;;;;;;;;;;;;20.57;63.18;100323.56;7402773;19;1548;-38
2022/05/23 06:17:21;;;;;;;;;;;;;;;20.61;63.12;100314.22;7400772;19;1847;-38
2022/05/23 06:19:53;;;;;;;;;;;;;;;20.66;62.92;100315.44;7403010;19;1868;-38
2022/05/23 06:22:22;;;;;;;;;;;;;;;20.68;62.73;100330.56;7403878;19;1671;-38
2022/05/23 06:24:50;;;;;;;;;;;;;;;20.69;63.11;100310.75;7401555;19;1794;-38
2022/05/23 06:27:18;;;;;;;;;;;;;;;20.75;62.76;100318.19;7400379;19;1897;-38
2022/05/23 06:29:49;;;;;;;;;;;;;;;20.74;62.89;100300.38;7402006;19;1759;-38
2022/05/23 06:32:17;;;;;;;;;;;;;;;20.78;62.82;100304.44;7400570;19;1436;-38
2022/05/23 06:34:46;;;;;;;;;;;;;;;20.75;62.75;100299.38;7400134;19;1454;-38
2022/05/23 06:37:14;;;;;;;;;;;;;;;20.80;62.83;100307.81;7402957;19;1959;-38
2022/05/23 06:39:42;;;;;;;;;;;;;;;20.80;62.61;100297.91;7401522;19;1874;-38
2022/05/23 06:42:10;;;;;;;;;;;;;;;20.78;62.94;100288.31;7401880;19;1951;-38
2022/05/23 06:44:52;;;;;;;;;;;;;;;20.78;62.73;100289.16;7400189;19;1675;-40
2022/05/23 06:47:25;;;;;;;;;;;;;;;20.82;62.53;100290.50;7401599;19;1627;-38
2022/05/23 06:49:53;;;;;;;;;;;;;;;20.82;62.87;100279.75;7400842;19;1672;-38
2022/05/23 06:52:22;;;;;;;;;;;;;;;20.81;62.95;100282.59;7403012;19;1027;-38
2022/05/23 06:54:50;;;;;;;;;;;;;;;20.79;62.89;100284.59;7401527;19;1932;-38
2022/05/23 06:57:19;;;;;;;;;;;;;;;20.81;63.03;100269.16;7399887;19;1884;-38
2022/05/23 06:59:47;;;;;;;;;;;;;;;20.82;62.74;100266.31;7400633;19;1560;-38
2022/05/23 07:02:16;;;;;;;;;;;;;;;20.83;62.80;100276.09;7397483;19;1988;-38
2022/05/23 07:12:49;;;;;;;;;;;;;;;20.88;63.02;100278.28;7402901;19;1392;-38
2022/05/23 07:15:17;;;;;;;;;;;;;;;20.85;63.06;100270.56;7395986;19;1861;-38
2022/05/23 07:17:45;;;;;;;;;;;;;;;20.86;63.02;100277.59;7400396;19;1543;-38
2022/05/23 07:20:16;;;;;;;;;;;;;;;20.86;62.82;100286.50;7398704;19;1499;-39
2022/05/23 07:22:45;;;;;;;;;;;;;;;20.84;62.94;100277.75;7400641;19;1012;-38
2022/05/23 07:25:13;;;;;;;;;;;;;;;20.86;62.81;100269.53;7399981;19;1699;-39
2022/05/23 07:27:41;;;;;;;;;;;;;;;20.82;63.23;100269.00;7399791;19;1830;-38
2022/05/23 07:30:10;;;;;;;;;;;;;;;20.87;63.06;100282.00;7400149;19;1466;-38
2022/05/23 07:32:39;;;;;;;;;;;;;;;20.85;62.93;100267.88;7401112;19;1947;-38
2022/05/23 07:35:09;;;;;;;;;;;;;;;20.91;62.93;100277.97;7399614;19;1941;-38
2022/05/23 07:37:40;;;;;;;;;;;;;;;20.88;63.09;100267.53;7401582;19;1665;-38
2022/05/23 07:40:09;;;;;;;;;;;;;;;20.86;63.20;100281.13;7400263;19;1914;-38
2022/05/23 07:42:38;;;;;;;;;;;;;;;20.88;63.05;100277.44;7399299;19;1748;-38
2022/05/23 07:45:06;;;;;;;;;;;;;;;20.85;63.22;100265.19;7400402;19;1982;-39
2022/05/23 07:47:35;;;;;;;;;;;;;;;20.89;63.25;100274.63;7400163;19;1680;-38
2022/05/23 07:50:03;;;;;;;;;;;;;;;20.89;63.02;100260.31;7400491;19;1688;-38
2022/05/23 07:52:32;;;;;;;;;;;;;;;20.88;62.87;100267.53;7399726;19;2927;-38
2022/05/23 08:00:34;;;;;;;;;;;;;;;20.92;62.96;100268.91;7400437;19;1955;-38
2022/05/23 08:03:03;;;;;;;;;;;;;;;20.93;63.31;100281.34;7397401;19;2068;-38
2022/05/23 08:05:32;;;;;;;;;;;;;;;20.91;62.92;100261.84;7400280;19;1576;-38
2022/05/23 08:08:00;;;;;;;;;;;;;;;20.91;63.08;100266.38;7400107;19;1664;-38
2022/05/23 08:10:31;;;;;;;;;;;;;;;20.92;62.86;100255.47;7399739;19;1875;-38
2022/05/23 08:13:02;;;;;;;;;;;;;;;20.92;63.08;100268.06;7399328;19;1746;-38
2022/05/23 08:15:31;;;;;;;;;;;;;;;20.94;63.13;100261.53;7399261;19;1867;-39
2022/05/23 08:17:59;;;;;;;;;;;;;;;20.94;63.13;100255.31;7398948;19;1734;-38
2022/05/23 08:20:28;;;;;;;;;;;;;;;20.91;63.37;100250.25;7403302;19;1583;-38
2022/05/23 08:22:57;;;;;;;;;;;;;;;20.91;63.14;100255.63;7407279;19;1907;-38
2022/05/23 08:25:26;;;;;;;;;;;;;;;20.93;63.38;100259.84;7406093;19;1800;-38
2022/05/23 08:27:57;;;;;;;;;;;;;;;20.92;62.94;100250.09;7406094;19;1852;-38
2022/05/23 08:30:25;;;;;;;;;;;;;;;20.92;63.35;100257.31;7405679;19;1932;-39
2022/05/23 08:32:54;;;;;;;;;;;;;;;20.92;63.25;100246.56;7407088;19;1754;-38
2022/05/23 08:35:24;;;;;;;;;;;;;;;20.94;63.33;100245.38;7405227;19;1496;-38
2022/05/23 08:37:54;;;;;;;;;;;;;;;20.90;63.34;100241.34;7407254;19;1571;-38
2022/05/23 08:40:38;;;;;;;;;;;;;;;20.92;63.24;100247.41;7405904;19;1863;-39
2022/05/23 08:43:10;;;;;;;;;;;;;;;20.92;63.34;100247.41;7405786;19;1987;-39
2022/05/23 08:45:42;;;;;;;;;;;;;;;20.91;63.20;100245.72;7405076;19;1886;-39
2022/05/23 08:48:17;;;;;;;;;;;;;;;20.91;63.49;100240.34;7404218;19;1623;-39
2022/05/23 08:50:59;;;;;;;;;;;;;;;20.90;63.16;100238.66;7405513;19;1505;-38
2022/05/23 08:53:30;;;;;;;;;;;;;;;20.95;63.09;100220.22;7405687;19;1430;-38
2022/05/23 08:56:01;;;;;;;;;;;;;;;20.94;62.84;100231.94;7406301;19;1853;-38
2022/05/23 08:58:35;;;;;;;;;;;;;;;20.92;63.13;100233.97;7404132;19;1933;-39
2022/05/23 09:01:06;;;;;;;;;;;;;;;20.93;62.91;100211.47;7404788;19;1658;-40
2022/05/23 09:03:37;;;;;;;;;;;;;;;20.94;63.17;100217.69;7405726;19;1911;-40
2022/05/23 09:06:10;;;;;;;;;;;;;;;20.90;63.23;100227.06;7405760;19;1776;-38
2022/05/23 09:08:41;;;;;;;;;;;;;;;20.91;63.48;100218.00;7405613;19;1943;-38
2022/05/23 09:11:13;;;;;;;;;;;;;;;20.90;63.15;100221.69;7405107;19;2034;-38
2022/05/23 09:13:45;;;;;;;;;;;;;;;20.97;63.30;100228.97;7403983;19;1884;-38
2022/05/23 09:16:14;;;;;;;;;;;;;;;21.02;62.86;100226.59;7406489;19;1914;-39
2022/05/23 09:18:45;;;;;;;;;;;;;;;20.99;62.75;100224.25;7405130;19;1579;-39
2022/05/23 09:21:13;;;;;;;;;;;;;;;20.95;62.87;100222.03;7406557;19;1811;-38
2022/05/23 09:23:45;;;;;;;;;;;;;;;20.95;62.71;100230.97;7408015;19;1506;-39
2022/05/23 09:26:18;;;;;;;;;;;;;;;20.91;62.43;100218.84;7404682;19;1784;-40
2022/05/23 09:28:51;;;;;;;;;;;;;;;20.89;62.47;100220.88;7403970;19;1823;-40
2022/05/23 09:31:21;;;;;;;;;;;;;;;20.88;62.60;100229.91;7401745;19;1375;-40
2022/05/23 09:33:49;;;;;;;;;;;;;;;20.92;62.80;100235.81;7404487;19;1801;-40
2022/05/23 09:36:21;;;;;;;;;;;;;;;20.88;62.81;100229.91;7404540;19;1847;-39
2022/05/23 09:38:55;;;;;;;;;;;;;;;20.89;62.75;100220.88;7403065;19;1443;-39
2022/05/23 09:47:44;;;;;;;;;;;;;;;20.89;62.68;100228.94;7402219;19;1652;-40
2022/05/23 09:49:46;;;;;;;;;;;;;;;20.91;62.82;100228.75;7405104;19;1423;-39
2022/05/23 09:52:18;;;;;;;;;;;;;;;20.89;62.71;100226.25;7404422;19;1862;-39
2022/05/23 09:54:52;;;;;;;;;;;;;;;20.88;62.93;100229.91;7402247;19;1634;-40
2022/05/23 09:57:24;;;;;;;;;;;;;;;20.89;63.20;100218.19;7401610;19;1830;-41
2022/05/23 10:00:00;;;;;;;;;;;;;;;20.91;63.13;100216.16;7403309;19;1849;-39
2022/05/23 10:02:37;;;;;;;;;;;;;;;20.90;63.12;100219.84;7401422;19;1710;-40
2022/05/23 10:05:06;;;;;;;;;;;;;;;20.88;63.07;100224.53;7403870;19;1491;-40
2022/05/23 10:07:36;;;;;;;;;;;;;;;20.91;63.12;100232.28;7402763;19;1829;-40
2022/05/23 10:10:06;;;;;;;;;;;;;;;20.89;62.79;100237.00;7402062;19;1721;-39
2022/05/23 10:12:35;;;;;;;;;;;;;;;20.90;63.07;100222.53;7401865;19;1599;-39
2022/05/23 10:15:12;;;;;;;;;;;;;;;20.92;63.07;100225.91;7401828;19;1454;-39
2022/05/23 10:17:41;;;;;;;;;;;;;;;20.95;63.05;100235.47;7401106;19;1971;-39
2022/05/23 10:20:20;;;;;;;;;;;;;;;20.94;62.85;100220.38;7401594;19;1659;-40
2022/05/23 10:22:55;;;;;;;;;;;;;;;20.89;62.97;100231.63;7400268;19;1273;-40
2022/05/23 10:25:24;;;;;;;;;;;;;;;20.90;62.96;100217.16;7400674;19;1499;-39
2022/05/23 10:27:54;;;;;;;;;;;;;;;20.94;62.81;100229.25;7400588;19;1670;-41
2022/05/23 10:30:28;;;;;;;;;;;;;;;20.92;62.82;100207.09;7402765;19;1830;-39
2022/05/23 10:32:59;;;;;;;;;;;;;;;20.90;63.09;100201.03;7400946;19;1739;-39
2022/05/23 10:35:30;;;;;;;;;;;;;;;20.92;63.17;100196.34;7403167;19;1598;-39
2022/05/23 10:42:07;;;;;;;;;;;;;;;20.91;62.91;100200.03;7402354;19;1867;-40
2022/05/23 10:43:31;;;;;;;;;;;;;;;20.90;62.89;100192.97;7401413;19;1383;-40
2022/05/23 10:46:02;;;;;;;;;;;;;;;20.95;63.15;100192.47;7402636;19;1074;-44
2022/05/23 10:48:39;;;;;;;;;;;;;;;20.93;63.19;100198.03;7402688;19;1909;-39
2022/05/23 10:51:14;;;;;;;;;;;;;;;20.94;63.12;100198.88;7402477;19;1797;-40
2022/05/23 10:53:54;;;;;;;;;;;;;;;20.93;63.19;100189.97;7401028;19;1668;-40
2022/05/23 10:56:28;;;;;;;;;;;;;;;20.93;62.91;100183.72;7401848;19;1833;-39
2022/05/23 10:58:59;;;;;;;;;;;;;;;20.90;63.34;100173.31;7400286;19;1900;-40
2022/05/23 11:01:39;;;;;;;;;;;;;;;20.91;63.09;100194.66;7400496;19;1598;-40
2022/05/23 11:04:13;;;;;;;;;;;;;;;20.84;63.32;100174.81;7400792;19;1489;-39
2022/05/23 11:06:49;;;;;;;;;;;;;;;20.83;63.51;100176.66;7401597;19;1844;-40
2022/05/23 11:09:24;;;;;;;;;;;;;;;20.89;63.09;100190.44;7401025;19;1591;-41
2022/05/23 11:11:59;;;;;;;;;;;;;;;20.90;63.16;100168.78;7401778;19;1906;-39
2022/05/23 11:14:32;;;;;;;;;;;;;;;20.90;62.97;100173.31;7401948;19;1647;-40
2022/05/23 11:17:09;;;;;;;;;;;;;;;20.91;63.29;100164.25;7400557;19;1843;-40
2022/05/23 11:19:45;;;;;;;;;;;;;;;20.91;63.13;100159.72;7400608;19;1995;-40
2022/05/23 11:22:18;;;;;;;;;;;;;;;20.92;63.11;100177.53;7399963;19;1810;-39
2022/05/23 11:24:50;;;;;;;;;;;;;;;20.92;63.22;100180.22;7400780;19;2074;-39
2022/05/23 11:35:42;;;;;;;;;;;;;;;20.94;63.23;100158.53;7400003;19;1484;-39
2022/05/23 11:38:18;;;;;;;;;;;;;;;20.96;62.90;100169.97;7398809;19;1844;-39
2022/05/23 11:41:07;;;;;;;;;;;;;;;20.97;62.88;100164.44;7400871;19;1932;-40
2022/05/23 11:43:36;;;;;;;;;;;;;;;20.95;63.01;100161.09;7398947;19;1977;-39
2022/05/23 11:46:07;;;;;;;;;;;;;;;20.94;63.17;100172.81;7399305;19;2013;-39
2022/05/23 11:48:46;;;;;;;;;;;;;;;20.96;62.80;100173.50;7400427;19;1855;-40
2022/05/23 11:51:19;;;;;;;;;;;;;;;20.93;63.10;100160.41;7401005;19;1905;-39
2022/05/23 11:53:55;;;;;;;;;;;;;;;20.97;63.18;100177.88;7399127;19;1904;-39
2022/05/23 11:56:51;;;;;;;;;;;;;;;20.94;63.05;100166.63;7406469;19;1629;-39
2022/05/23 11:59:37;;;;;;;;;;;;;;;20.97;62.89;100167.13;7403577;19;1938;-39
2022/05/23 12:02:20;;;;;;;;;;;;;;;20.96;62.80;100156.53;7401635;19;1650;-40
2022/05/23 12:05:09;;;;;;;;;;;;;;;20.94;62.78;100169.31;7405879;19;1622;-40
2022/05/23 12:07:52;;;;;;;;;;;;;;;20.91;63.14;100156.16;7406578;19;1463;-39
2022/05/23 12:10:36;;;;;;;;;;;;;;;20.93;63.19;100176.53;7406506;19;1930;-39
2022/05/23 12:13:28;;;;;;;;;;;;;;;20.95;63.37;100160.22;7406447;19;1631;-39
2022/05/23 12:16:07;;;;;;;;;;;;;;;20.97;63.01;100185.09;7408064;19;1167;-39
2022/05/23 12:18:38;;;;;;;;;;;;;;;20.92;63.13;100166.78;7405303;19;1884;-39
2022/05/23 12:21:35;;;;;;;;;;;;;;;20.96;63.05;100168.13;7407665;19;1714;-39
2022/05/23 12:24:14;;;;;;;;;;;;;;;20.98;62.91;100160.75;7406747;19;1742;-39
2022/05/23 12:26:50;;;;;;;;;;;;;;;20.96;63.09;100167.28;7406290;19;1937;-39
2022/05/23 12:29:31;;;;;;;;;;;;;;;20.94;63.27;100170.13;7406470;19;1845;-39
2022/05/23 12:32:17;;;;;;;;;;;;;;;20.95;63.06;100160.22;7406101;19;1796;-39
2022/05/23 12:34:49;;;;;;;;;;;;;;;20.94;63.07;100167.44;7406093;19;1691;-39
2022/05/23 12:37:26;;;;;;;;;;;;;;;20.96;63.08;100167.28;7404838;19;1857;-39
2022/05/23 12:40:10;;;;;;;;;;;;;;;20.97;63.01;100168.97;7405792;19;2153;-39
2022/05/23 12:43:03;;;;;;;;;;;;;;;20.97;62.92;100175.19;7406368;19;2185;-39
2022/05/23 12:45:58;;;;;;;;;;;;;;;20.95;63.05;100163.78;7404423;19;1752;-39
2022/05/23 12:48:40;;;;;;;;;;;;;;;20.94;62.90;100154.00;7403431;19;2162;-39
2022/05/23 12:54:16;;;;;;;;;;;;;;;20.92;63.00;100156.00;7406254;19;1633;-39
2022/05/23 12:57:03;;;;;;;;;;;;;;;20.96;63.01;100167.28;7404587;19;1935;-39
2022/05/23 12:59:44;;;;;;;;;;;;;;;20.96;63.21;100160.06;7405107;19;1942;-39
2022/05/23 13:02:16;;;;;;;;;;;;;;;20.94;63.13;100167.44;7402238;19;1779;-39
2022/05/23 13:04:49;;;;;;;;;;;;;;;20.96;63.21;100162.75;7404614;19;1568;-39
2022/05/23 13:07:21;;;;;;;;;;;;;;;20.92;63.26;100149.81;7405787;19;1267;-39
2022/05/23 13:09:55;;;;;;;;;;;;;;;20.93;63.04;100157.72;7403898;19;2052;-39
2022/05/23 13:12:25;;;;;;;;;;;;;;;20.96;63.10;100154.69;7405612;19;1733;-39
2022/05/23 13:14:55;;;;;;;;;;;;;;;20.94;63.40;100170.13;7404724;19;1907;-39
2022/05/23 13:17:31;;;;;;;;;;;;;;;20.94;63.26;100164.75;7404011;19;1901;-39
2022/05/23 13:22:40;;;;;;;;;;;;;;;20.93;63.41;100168.47;7405043;19;2119;-40
2022/05/23 13:25:11;;;;;;;;;;;;;;;20.94;63.13;100153.19;7403635;19;1624;-39
2022/05/23 13:27:45;;;;;;;;;;;;;;;20.90;63.24;100163.41;7403923;19;1606;-39
2022/05/23 13:30:22;;;;;;;;;;;;;;;20.90;63.14;100157.19;7404264;19;1889;-39
2022/05/23 13:33:01;;;;;;;;;;;;;;;20.94;63.21;100162.06;7403983;19;1914;-39
2022/05/23 13:35:30;;;;;;;;;;;;;;;20.93;62.99;100151.47;7404355;19;1597;-39
2022/05/23 13:38:21;;;;;;;;;;;;;;;20.95;63.10;100165.59;7403448;19;1941;-39
2022/05/23 13:40:58;;;;;;;;;;;;;;;20.93;63.29;100155.03;7404568;19;1464;-39
2022/05/23 13:43:30;;;;;;;;;;;;;;;20.95;63.34;100162.91;7402257;19;1919;-40
2022/05/23 13:46:01;;;;;;;;;;;;;;;20.97;63.18;100166.28;7405603;19;995;-39
2022/05/23 13:48:32;;;;;;;;;;;;;;;20.95;63.04;100155.72;7404298;19;1803;-39
2022/05/23 13:51:03;;;;;;;;;;;;;;;20.93;63.01;100151.47;7404667;19;2051;-39
2022/05/23 13:53:33;;;;;;;;;;;;;;;20.94;63.21;100167.44;7402742;19;1914;-40
2022/05/23 13:56:04;;;;;;;;;;;;;;;20.88;63.49;100165.41;7402511;19;1802;-40
2022/05/23 13:58:35;;;;;;;;;;;;;;;20.91;63.11;100173.16;7401706;19;1946;-40
2022/05/23 14:01:04;;;;;;;;;;;;;;;20.90;63.35;100165.25;7401877;19;1786;-40
2022/05/23 14:03:36;;;;;;;;;;;;;;;20.93;63.53;100172.97;7401633;19;1818;-39
2022/05/23 14:06:09;;;;;;;;;;;;;;;20.93;63.29;100167.59;7404506;19;1839;-39
2022/05/23 14:08:38;;;;;;;;;;;;;;;20.92;63.19;100171.31;7403778;19;1826;-39
2022/05/23 14:11:21;;;;;;;;;;;;;;;20.91;63.09;100181.22;7402955;19;1893;-39
2022/05/23 14:13:50;;;;;;;;;;;;;;;20.88;63.46;100154.66;7402122;19;1840;-39
2022/05/23 14:16:22;;;;;;;;;;;;;;;20.87;63.30;100166.44;7401791;19;1836;-40
2022/05/23 14:19:03;;;;;;;;;;;;;;;20.91;63.01;100164.25;7399184;19;1856;-40
2022/05/23 14:21:36;;;;;;;;;;;;;;;20.94;63.07;100167.44;7403059;19;1817;-40
2022/05/23 14:24:15;;;;;;;;;;;;;;;20.89;63.53;100166.25;7401990;19;1815;-39